Time;durP1;ratioP1;P1;durP2;ratioP2;P2;SDS_P1;SDS_P2;PMS_P1;PMS_P2;Temp;Humidity;BMP_temperature;BMP_pressure;BME280_temperature;BME280_humidity;BME280_pressure;Samples;Min_cycle;Max_cycle;Signal;HPM_P1;HPM_P2
2023/08/10 00:01:24;;;;;;;6.20;4.17;;;13.80;99.90;;;;;;5013109;28;20171;-71
2023/08/10 00:03:49;;;;;;;4.20;3.90;;;13.80;99.90;;;;;;5013106;28;20188;-71
2023/08/10 00:06:15;;;;;;;5.20;3.83;;;13.80;99.90;;;;;;5011937;28;20180;-71
2023/08/10 00:08:41;;;;;;;4.60;4.20;;;13.80;99.90;;;;;;5012874;28;20266;-72
2023/08/10 00:11:06;;;;;;;4.40;4.10;;;13.70;99.90;;;;;;5011903;28;20538;-72
2023/08/10 00:13:32;;;;;;;13.07;4.37;;;13.70;99.90;;;;;;5012884;28;20188;-71
2023/08/10 00:15:58;;;;;;;8.57;4.50;;;13.70;99.90;;;;;;5012734;28;20229;-71
2023/08/10 00:18:23;;;;;;;4.80;4.37;;;13.70;99.90;;;;;;5012988;28;20330;-71
2023/08/10 00:20:49;;;;;;;5.57;4.27;;;13.60;99.90;;;;;;5012665;28;20176;-71
2023/08/10 00:23:14;;;;;;;7.37;4.40;;;13.60;99.90;;;;;;5012721;28;20255;-71
2023/08/10 00:25:40;;;;;;;6.20;4.50;;;13.60;99.90;;;;;;5012884;28;20175;-70
2023/08/10 00:28:06;;;;;;;4.63;4.23;;;13.50;99.90;;;;;;5012930;28;20642;-71
2023/08/10 00:30:31;;;;;;;4.77;4.40;;;13.50;99.90;;;;;;5012525;28;20641;-70
2023/08/10 00:32:57;;;;;;;5.87;4.77;;;13.40;99.90;;;;;;5012385;28;20727;-71
2023/08/10 00:35:23;;;;;;;4.77;4.10;;;13.40;99.90;;;;;;5012686;28;20242;-71
2023/08/10 00:37:49;;;;;;;6.57;4.40;;;13.30;99.90;;;;;;5012545;28;20204;-71
2023/08/10 00:40:15;;;;;;;6.27;4.87;;;13.30;99.90;;;;;;5012659;28;20668;-71
2023/08/10 00:42:41;;;;;;;5.23;4.73;;;13.30;99.90;;;;;;5010720;28;20677;-72
2023/08/10 00:45:08;;;;;;;5.93;4.17;;;13.30;99.90;;;;;;5012556;28;20203;-71
2023/08/10 00:47:33;;;;;;;4.83;4.50;;;13.30;99.90;;;;;;5012492;28;20203;-72
2023/08/10 00:49:59;;;;;;;5.03;4.63;;;13.30;99.90;;;;;;5012330;28;20654;-71
2023/08/10 00:52:25;;;;;;;5.03;4.53;;;13.50;99.90;;;;;;5012321;28;20192;-70
2023/08/10 00:54:51;;;;;;;7.87;5.27;;;13.50;99.90;;;;;;5011002;28;20179;-70
2023/08/10 00:57:17;;;;;;;5.20;4.50;;;13.60;99.90;;;;;;5012631;28;20204;-71
2023/08/10 00:59:43;;;;;;;6.13;4.43;;;13.70;99.90;;;;;;5012253;28;20202;-71
2023/08/10 01:02:11;;;;;;;4.67;4.00;;;13.70;99.90;;;;;;5011980;28;20684;-70
2023/08/10 01:04:36;;;;;;;4.40;4.10;;;13.70;99.90;;;;;;5011781;28;20207;-71
2023/08/10 01:07:05;;;;;;;5.03;4.00;;;13.80;99.90;;;;;;5012050;28;20192;-72
2023/08/10 01:09:51;;;;;;;4.37;3.97;;;13.90;99.90;;;;;;5011888;28;20214;-71
2023/08/10 01:12:20;;;;;;;6.07;4.53;;;13.90;99.90;;;;;;5011581;28;20186;-71
2023/08/10 01:15:06;;;;;;;6.80;3.93;;;14.00;99.90;;;;;;5011931;28;20486;-70
2023/08/10 01:17:39;;;;;;;4.37;3.97;;;14.00;99.90;;;;;;5011568;28;20220;-70
2023/08/10 01:20:08;;;;;;;5.07;3.90;;;14.00;99.90;;;;;;5011933;28;20255;-71
2023/08/10 01:22:45;;;;;;;12.77;4.37;;;13.90;99.90;;;;;;5011531;28;20188;-71
2023/08/10 01:25:12;;;;;;;4.70;3.67;;;13.90;99.90;;;;;;5012275;28;20168;-71
2023/08/10 01:27:38;;;;;;;4.50;4.20;;;13.80;99.90;;;;;;5011856;28;20180;-71
2023/08/10 01:30:05;;;;;;;4.30;3.90;;;13.80;99.90;;;;;;5011944;28;20209;-71
2023/08/10 01:32:32;;;;;;;10.60;4.47;;;13.70;99.90;;;;;;5011370;28;20230;-72
2023/08/10 01:34:57;;;;;;;6.43;4.77;;;13.70;99.90;;;;;;5011632;28;20188;-71
2023/08/10 01:37:23;;;;;;;4.50;4.10;;;13.70;99.90;;;;;;5010129;28;20215;-71
2023/08/10 01:39:50;;;;;;;12.30;4.50;;;13.70;99.90;;;;;;5010383;28;20172;-71
2023/08/10 01:42:15;;;;;;;6.63;4.23;;;13.80;99.90;;;;;;5011344;28;20172;-70
2023/08/10 01:44:41;;;;;;;4.47;4.07;;;13.90;99.90;;;;;;5011672;28;20661;-71
2023/08/10 01:47:46;;;;;;;5.30;4.80;;;13.90;99.90;;;;;;5011428;28;20188;-71
2023/08/10 01:50:15;;;;;;;4.20;3.90;;;13.90;99.90;;;;;;5007637;28;20188;-71
2023/08/10 01:52:50;;;;;;;4.10;3.80;;;13.90;99.90;;;;;;5010831;28;20196;-71
2023/08/10 01:55:17;;;;;;;8.03;4.47;;;13.90;99.90;;;;;;5011741;28;20302;-71
2023/08/10 01:57:44;;;;;;;6.43;4.20;;;14.00;99.90;;;;;;5011179;28;20234;-71
2023/08/10 02:00:12;;;;;;;9.50;4.10;;;14.00;99.90;;;;;;5011852;28;20188;-71
2023/08/10 02:02:38;;;;;;;5.03;4.00;;;14.00;99.90;;;;;;5011004;28;20198;-72
2023/08/10 02:05:04;;;;;;;4.57;4.10;;;13.90;99.90;;;;;;5011409;28;20180;-71
2023/08/10 02:07:30;;;;;;;8.90;3.80;;;14.00;99.90;;;;;;5011497;28;20172;-72
2023/08/10 02:09:55;;;;;;;6.73;4.50;;;14.00;99.90;;;;;;5011497;28;20578;-71
2023/08/10 02:12:21;;;;;;;4.57;4.17;;;14.00;99.90;;;;;;5010879;28;20184;-70
2023/08/10 02:14:46;;;;;;;4.30;4.00;;;14.00;99.90;;;;;;5011179;28;20255;-71
2023/08/10 02:17:12;;;;;;;5.30;3.97;;;13.90;99.90;;;;;;5011351;28;20199;-72
2023/08/10 02:19:38;;;;;;;5.40;4.60;;;13.80;99.90;;;;;;5011374;28;20214;-71
2023/08/10 02:22:03;;;;;;;5.67;3.93;;;13.70;99.90;;;;;;5011540;28;20514;-71
2023/08/10 02:24:29;;;;;;;5.97;4.80;;;13.50;99.90;;;;;;5015065;28;20168;-70
2023/08/10 02:26:55;;;;;;;6.30;4.40;;;13.50;99.90;;;;;;5015038;28;20176;-71
2023/08/10 02:29:21;;;;;;;5.07;4.40;;;13.50;99.90;;;;;;5015103;28;20175;-71
2023/08/10 02:31:47;;;;;;;9.23;4.37;;;13.50;99.90;;;;;;5014634;28;20263;-71
2023/08/10 02:34:12;;;;;;;7.60;5.00;;;13.50;99.90;;;;;;5014842;28;20750;-72
2023/08/10 02:36:38;;;;;;;4.50;4.10;;;13.50;99.90;;;;;;5014793;28;20180;-70
2023/08/10 02:39:05;;;;;;;5.47;4.10;;;13.50;99.90;;;;;;5014582;28;20184;-71
2023/08/10 02:41:32;;;;;;;6.73;4.37;;;13.50;99.90;;;;;;5014570;28;20179;-71
2023/08/10 02:43:57;;;;;;;7.07;4.33;;;13.50;99.90;;;;;;5014692;28;20203;-71
2023/08/10 02:46:23;;;;;;;15.37;4.97;;;13.50;99.90;;;;;;5014843;28;20181;-71
2023/08/10 02:48:48;;;;;;;4.83;4.33;;;13.50;99.90;;;;;;5014529;28;20176;-71
2023/08/10 02:51:14;;;;;;;5.03;4.57;;;13.50;99.90;;;;;;5014706;28;20173;-71
2023/08/10 02:53:40;;;;;;;6.07;4.57;;;13.50;99.90;;;;;;5014363;28;20662;-71
2023/08/10 02:56:05;;;;;;;5.00;4.23;;;13.40;99.90;;;;;;5014390;28;20270;-71
2023/08/10 02:58:31;;;;;;;4.20;4.00;;;13.40;99.90;;;;;;5014334;28;20674;-72
2023/08/10 03:00:56;;;;;;;4.73;3.80;;;13.40;99.90;;;;;;5014089;28;20176;-71
2023/08/10 03:03:23;;;;;;;5.90;4.63;;;13.40;99.90;;;;;;5014120;28;20200;-71
2023/08/10 03:05:48;;;;;;;5.57;3.80;;;13.40;99.90;;;;;;5014324;28;20255;-71
2023/08/10 03:08:15;;;;;;;8.17;4.30;;;13.30;99.90;;;;;;5014417;28;20690;-71
2023/08/10 03:10:40;;;;;;;7.80;4.30;;;13.30;99.90;;;;;;5014236;28;20172;-70
2023/08/10 03:13:07;;;;;;;6.50;4.97;;;13.20;99.90;;;;;;5013481;28;20299;-71
2023/08/10 03:15:32;;;;;;;5.00;4.40;;;13.20;99.90;;;;;;5014060;28;20185;-71
2023/08/10 03:17:58;;;;;;;5.73;4.50;;;13.10;99.90;;;;;;5014133;28;20263;-71
2023/08/10 03:20:23;;;;;;;5.60;5.00;;;13.00;99.90;;;;;;5014224;28;20180;-72
2023/08/10 03:22:49;;;;;;;10.67;4.67;;;13.00;99.90;;;;;;5013560;28;20303;-71
2023/08/10 03:25:14;;;;;;;5.37;4.30;;;13.00;99.90;;;;;;5014003;28;20207;-71
2023/08/10 03:27:40;;;;;;;4.90;4.40;;;12.90;99.90;;;;;;5013693;28;20226;-71
2023/08/10 03:30:06;;;;;;;4.70;4.30;;;12.90;99.90;;;;;;5012658;28;20271;-71
2023/08/10 03:32:32;;;;;;;5.07;4.57;;;12.80;99.90;;;;;;5013351;28;20199;-72
2023/08/10 03:34:58;;;;;;;5.50;4.97;;;12.80;99.90;;;;;;5013491;28;20200;-72
2023/08/10 03:37:23;;;;;;;5.60;5.10;;;12.70;99.90;;;;;;5012534;28;20211;-71
2023/08/10 03:39:49;;;;;;;5.70;5.17;;;12.70;99.90;;;;;;5013636;28;20548;-70
2023/08/10 03:42:15;;;;;;;6.20;4.87;;;12.60;99.90;;;;;;5013216;28;20195;-71
2023/08/10 03:44:41;;;;;;;7.30;5.30;;;12.60;99.90;;;;;;5013495;28;20182;-70
2023/08/10 03:47:06;;;;;;;5.43;4.93;;;12.60;99.90;;;;;;5013457;28;20180;-71
2023/08/10 03:49:32;;;;;;;7.50;4.70;;;12.60;99.90;;;;;;5013263;28;20671;-72
2023/08/10 03:51:58;;;;;;;6.73;5.17;;;12.60;99.90;;;;;;5013025;28;20192;-71
2023/08/10 03:54:23;;;;;;;5.07;4.57;;;12.50;99.90;;;;;;5013457;28;20202;-70
2023/08/10 03:56:49;;;;;;;6.80;5.10;;;12.50;99.90;;;;;;5012869;28;20290;-72
2023/08/10 03:59:14;;;;;;;6.73;5.40;;;12.40;99.90;;;;;;5013258;28;20255;-71
2023/08/10 04:01:41;;;;;;;6.67;5.43;;;12.40;99.90;;;;;;5013003;28;20182;-71
2023/08/10 04:04:07;;;;;;;9.97;5.00;;;12.40;99.90;;;;;;5013267;28;20191;-72
2023/08/10 04:06:32;;;;;;;5.03;4.60;;;12.40;99.90;;;;;;5012992;28;20709;-71
2023/08/10 04:08:58;;;;;;;10.13;4.83;;;12.40;99.90;;;;;;5013020;28;20674;-71
2023/08/10 04:11:24;;;;;;;5.67;4.80;;;12.40;99.90;;;;;;5012394;28;20190;-71
2023/08/10 04:13:50;;;;;;;5.27;4.77;;;12.40;99.90;;;;;;5012803;28;20279;-70
2023/08/10 04:16:16;;;;;;;5.83;5.20;;;12.40;99.90;;;;;;5013323;28;20271;-71
2023/08/10 04:18:42;;;;;;;6.37;5.73;;;12.40;99.90;;;;;;5011536;28;20208;-70
2023/08/10 04:21:08;;;;;;;5.50;5.00;;;12.40;99.90;;;;;;5012834;28;20183;-71
2023/08/10 04:23:33;;;;;;;5.87;5.27;;;12.40;99.90;;;;;;5011643;28;20200;-71
2023/08/10 04:25:59;;;;;;;5.90;5.40;;;12.40;99.90;;;;;;5012354;28;20724;-72
2023/08/10 04:28:25;;;;;;;5.70;5.20;;;12.40;99.90;;;;;;5012883;28;20196;-70
2023/08/10 04:30:50;;;;;;;9.33;5.30;;;12.40;99.90;;;;;;5012609;28;20177;-73
2023/08/10 04:33:16;;;;;;;11.37;5.33;;;12.40;99.90;;;;;;5011895;28;20215;-71
2023/08/10 04:35:42;;;;;;;5.83;5.10;;;12.40;99.90;;;;;;5012642;28;20187;-71
2023/08/10 04:38:07;;;;;;;5.97;4.93;;;12.40;99.90;;;;;;5012704;28;20216;-71
2023/08/10 04:40:33;;;;;;;6.73;5.20;;;12.40;99.90;;;;;;5012392;28;20172;-71
2023/08/10 04:42:59;;;;;;;5.80;5.30;;;12.40;99.90;;;;;;5010727;28;20555;-71
2023/08/10 04:45:25;;;;;;;6.10;5.50;;;12.40;99.90;;;;;;5012190;28;20172;-71
2023/08/10 04:47:50;;;;;;;6.87;5.03;;;12.50;99.90;;;;;;5012559;28;20180;-71
2023/08/10 04:50:16;;;;;;;8.83;5.57;;;12.60;99.90;;;;;;5012496;28;20515;-71
2023/08/10 04:52:42;;;;;;;8.73;5.33;;;12.60;99.90;;;;;;5011959;28;20251;-71
2023/08/10 04:55:09;;;;;;;6.17;5.63;;;12.70;99.90;;;;;;5012302;28;20255;-70
2023/08/10 04:57:36;;;;;;;5.80;5.30;;;12.90;99.90;;;;;;5011859;28;20250;-71
2023/08/10 05:00:08;;;;;;;5.60;5.10;;;12.90;99.90;;;;;;5012348;28;20234;-70
2023/08/10 05:02:34;;;;;;;5.30;4.90;;;13.10;99.90;;;;;;5011800;28;20188;-70
2023/08/10 05:05:00;;;;;;;10.13;5.30;;;13.20;99.90;;;;;;5011963;28;20234;-70
2023/08/10 05:07:27;;;;;;;6.03;5.00;;;13.20;99.90;;;;;;5010900;28;20186;-70
2023/08/10 05:09:53;;;;;;;5.53;5.03;;;13.30;99.90;;;;;;5012142;28;20187;-70
2023/08/10 05:12:18;;;;;;;6.47;4.43;;;13.40;99.90;;;;;;5011715;28;20180;-70
2023/08/10 05:14:44;;;;;;;6.83;5.60;;;13.70;99.90;;;;;;5011666;28;20195;-71
2023/08/10 05:17:10;;;;;;;5.50;5.00;;;14.00;99.90;;;;;;5010624;28;20657;-71
2023/08/10 05:19:36;;;;;;;6.20;5.00;;;14.20;99.90;;;;;;5011980;28;20172;-71
2023/08/10 05:22:01;;;;;;;7.67;4.73;;;14.60;99.90;;;;;;5011696;28;20176;-70
2023/08/10 05:24:27;;;;;;;5.80;4.17;;;14.80;99.90;;;;;;5011911;28;20282;-71
2023/08/10 05:26:53;;;;;;;5.20;4.70;;;15.10;99.90;;;;;;5011870;28;20701;-71
2023/08/10 05:29:18;;;;;;;4.80;4.30;;;15.30;99.90;;;;;;5011334;28;20433;-71
2023/08/10 05:31:44;;;;;;;5.93;4.87;;;15.50;99.90;;;;;;5011301;28;20310;-71
2023/08/10 05:34:10;;;;;;;4.93;4.43;;;15.60;99.90;;;;;;5010382;28;20223;-71
2023/08/10 05:36:35;;;;;;;5.43;4.10;;;15.70;99.90;;;;;;5011686;28;20179;-71
2023/08/10 05:39:01;;;;;;;4.30;4.00;;;15.70;99.90;;;;;;5011632;28;20258;-71
2023/08/10 05:41:27;;;;;;;6.87;4.70;;;15.60;99.90;;;;;;5011506;28;20176;-71
2023/08/10 05:43:52;;;;;;;9.40;4.90;;;15.60;99.90;;;;;;5011459;28;20252;-71
2023/08/10 05:46:18;;;;;;;4.70;4.30;;;15.60;99.90;;;;;;5010580;28;20187;-71
2023/08/10 05:48:44;;;;;;;5.40;4.20;;;15.70;99.90;;;;;;5011251;28;20246;-71
2023/08/10 05:51:09;;;;;;;12.53;4.73;;;15.70;99.90;;;;;;5011611;28;20180;-71
2023/08/10 05:53:37;;;;;;;6.50;4.23;;;15.80;99.90;;;;;;5011394;28;20279;-71
2023/08/10 05:56:03;;;;;;;5.07;4.23;;;15.80;99.90;;;;;;5012262;28;20270;-71
2023/08/10 05:58:29;;;;;;;6.43;4.60;;;15.80;99.90;;;;;;5015883;28;20242;-71
2023/08/10 06:00:56;;;;;;;6.17;4.13;;;16.00;99.90;;;;;;5015622;28;20543;-71
2023/08/10 06:03:21;;;;;;;4.60;4.20;;;16.20;99.90;;;;;;5015191;28;20187;-71
2023/08/10 06:05:47;;;;;;;5.03;4.00;;;16.40;99.90;;;;;;5015161;28;20230;-71
2023/08/10 06:08:14;;;;;;;8.00;4.30;;;16.70;99.90;;;;;;5015484;28;20186;-71
2023/08/10 06:10:40;;;;;;;4.07;3.60;;;16.90;99.90;;;;;;5015389;28;20262;-71
2023/08/10 06:13:06;;;;;;;5.70;3.93;;;17.10;99.90;;;;;;5014112;28;20223;-72
2023/08/10 06:15:33;;;;;;;6.33;3.83;;;17.30;99.90;;;;;;5014076;28;20184;-71
2023/08/10 06:17:58;;;;;;;7.57;4.00;;;17.60;99.90;;;;;;5015214;28;20204;-72
2023/08/10 06:20:26;;;;;;;5.10;3.60;;;17.90;99.90;;;;;;5015224;28;20536;-72
2023/08/10 06:22:54;;;;;;;7.35;4.10;;;18.40;99.90;;;;;;5014805;28;20207;-71
2023/08/10 06:25:19;;;;;;;5.05;3.45;;;18.90;99.90;;;;;;5015065;28;20180;-71
2023/08/10 06:27:47;;;;;;;6.13;4.90;;;19.40;99.90;;;;;;5014750;28;20270;-71
2023/08/10 06:30:16;;;;;;;6.00;3.72;;;20.00;99.90;;;;;;5015401;28;20179;-71
2023/08/10 06:32:43;;;;;;;5.80;3.90;;;20.30;99.90;;;;;;5014496;28;20210;-72
2023/08/10 06:35:09;;;;;;;6.50;3.45;;;20.70;99.90;;;;;;5013353;28;20208;-72
2023/08/10 06:37:36;;;;;;;3.80;3.45;;;21.00;99.90;;;;;;5014623;28;20334;-72
2023/08/10 06:40:08;;;;;;;4.63;3.75;;;21.50;99.90;;;;;;5014767;28;20192;-71
2023/08/10 06:42:33;;;;;;;5.28;3.03;;;21.90;99.90;;;;;;5014266;28;20199;-71
2023/08/10 06:44:59;;;;;;;4.10;3.70;;;22.30;99.90;;;;;;5014575;28;20531;-71
2023/08/10 06:47:25;;;;;;;4.25;2.80;;;22.70;99.90;;;;;;5013376;28;20176;-71
2023/08/10 06:49:51;;;;;;;4.68;3.85;;;23.10;99.90;;;;;;5013242;28;20590;-71
2023/08/10 06:52:16;;;;;;;5.10;3.88;;;23.50;99.90;;;;;;5014217;28;20258;-72
2023/08/10 06:54:42;;;;;;;4.00;3.50;;;24.00;99.90;;;;;;5014366;28;20247;-72
2023/08/10 06:57:08;;;;;;;4.15;3.75;;;24.20;99.90;;;;;;5013965;28;20204;-72
2023/08/10 06:59:33;;;;;;;7.95;7.35;;;24.20;99.90;;;;;;5012885;28;20177;-72
2023/08/10 07:01:59;;;;;;;5.90;5.00;;;24.70;99.90;;;;;;5014408;28;20200;-72
2023/08/10 07:04:25;;;;;;;5.43;4.13;;;25.20;99.90;;;;;;5014086;28;20278;-72
2023/08/10 07:06:51;;;;;;;5.93;5.40;;;25.80;99.90;;;;;;5014164;28;20592;-72
2023/08/10 07:09:16;;;;;;;3.63;3.00;;;26.20;99.90;;;;;;5013744;28;20586;-72
2023/08/10 07:11:42;;;;;;;4.97;2.78;;;26.50;99.90;;;;;;5013773;28;20176;-72
2023/08/10 07:14:08;;;;;;;5.35;4.40;;;26.70;99.90;;;;;;5013251;28;20218;-72
2023/08/10 07:16:33;;;;;;;6.93;5.93;;;27.00;99.90;;;;;;5014144;28;20510;-72
2023/08/10 07:18:59;;;;;;;7.60;7.18;;;27.50;99.90;;;;;;5013877;28;20195;-72
2023/08/10 07:21:25;;;;;;;12.35;11.77;;;28.00;99.90;;;;;;5013899;28;20537;-72
2023/08/10 07:23:50;;;;;;;6.38;5.97;;;28.20;99.90;;;;;;5013564;28;20283;-73
2023/08/10 07:26:16;;;;;;;4.07;3.70;;;27.90;99.90;;;;;;5013906;28;20252;-73
2023/08/10 07:28:43;;;;;;;3.95;3.45;;;28.10;99.90;;;;;;5013737;28;20271;-72
2023/08/10 07:31:09;;;;;;;6.93;4.65;;;28.20;99.90;;;;;;5012214;28;20206;-72
2023/08/10 07:33:34;;;;;;;7.95;7.30;;;28.20;99.90;;;;;;5012989;28;20216;-72
2023/08/10 07:36:00;;;;;;;11.05;10.43;;;28.50;99.90;;;;;;5013815;28;20661;-72
2023/08/10 07:38:26;;;;;;;7.55;4.82;;;28.80;99.90;;;;;;5013088;28;20207;-72
2023/08/10 07:40:51;;;;;;;5.65;4.82;;;28.90;99.90;;;;;;5013447;28;20172;-72
2023/08/10 07:43:17;;;;;;;4.95;4.25;;;29.10;99.90;;;;;;5011102;28;20208;-72
2023/08/10 07:45:43;;;;;;;3.47;2.67;;;29.30;99.90;;;;;;5013622;28;20180;-72
2023/08/10 07:48:08;;;;;;;3.08;2.63;;;29.50;99.90;;;;;;5013697;28;20661;-72
2023/08/10 07:50:34;;;;;;;3.17;2.35;;;29.40;98.50;;;;;;5013563;28;20176;-72
2023/08/10 07:52:59;;;;;;;3.72;3.45;;;29.00;98.70;;;;;;5013012;28;20203;-72
2023/08/10 07:55:25;;;;;;;3.17;2.83;;;28.90;99.90;;;;;;5013226;28;20173;-72
2023/08/10 07:57:51;;;;;;;3.22;2.92;;;29.10;99.90;;;;;;5011897;28;20223;-72
2023/08/10 08:00:17;;;;;;;2.97;2.53;;;29.40;99.90;;;;;;5013305;28;20192;-73
2023/08/10 08:02:43;;;;;;;4.28;2.30;;;29.70;99.90;;;;;;5012790;28;20195;-72
2023/08/10 08:05:09;;;;;;;2.72;2.53;;;29.80;96.80;;;;;;5013342;28;20634;-72
2023/08/10 08:07:35;;;;;;;3.55;3.38;;;29.90;97.80;;;;;;5013112;28;20263;-73
2023/08/10 08:10:00;;;;;;;5.40;4.90;;;30.00;97.80;;;;;;5013031;28;20616;-73
2023/08/10 08:12:26;;;;;;;4.80;4.30;;;30.40;96.70;;;;;;5011522;28;20291;-73
2023/08/10 08:14:53;;;;;;;5.95;5.53;;;30.10;94.80;;;;;;5011596;28;20222;-72
2023/08/10 08:17:19;;;;;;;4.03;3.65;;;30.00;96.60;;;;;;5012694;28;20680;-73
2023/08/10 08:19:45;;;;;;;2.75;2.03;;;30.30;96.10;;;;;;5011873;28;20544;-72
2023/08/10 08:22:10;;;;;;;2.50;2.30;;;29.90;92.70;;;;;;5012547;28;20168;-73
2023/08/10 08:24:36;;;;;;;5.85;3.30;;;29.90;96.20;;;;;;5012924;28;20397;-72
2023/08/10 08:27:02;;;;;;;5.22;4.05;;;30.50;97.00;;;;;;5012719;28;20200;-73
2023/08/10 08:29:27;;;;;;;4.32;2.95;;;30.80;94.10;;;;;;5012665;28;20564;-73
2023/08/10 08:31:53;;;;;;;3.80;3.10;;;30.80;92.20;;;;;;5011008;28;20239;-72
2023/08/10 08:34:19;;;;;;;3.03;2.83;;;30.60;91.30;;;;;;5012644;28;20246;-73
2023/08/10 08:36:44;;;;;;;5.45;5.05;;;30.30;90.80;;;;;;5012437;28;20572;-73
2023/08/10 08:39:10;;;;;;;4.20;2.92;;;30.50;94.50;;;;;;5011054;28;20176;-72
2023/08/10 08:41:37;;;;;;;3.47;3.10;;;30.80;93.80;;;;;;5012216;28;20560;-72
2023/08/10 08:44:08;;;;;;;2.00;1.90;;;31.10;91.70;;;;;;5012499;28;20226;-73
2023/08/10 08:46:38;;;;;;;4.50;2.00;;;31.10;93.80;;;;;;5012759;28;20517;-73
2023/08/10 08:49:04;;;;;;;2.83;2.45;;;31.30;93.30;;;;;;5012535;28;20203;-73
2023/08/10 08:51:31;;;;;;;1.90;1.80;;;31.40;93.10;;;;;;5012259;28;20214;-73
2023/08/10 08:54:01;;;;;;;2.17;2.08;;;31.80;93.90;;;;;;5010306;28;20269;-73
2023/08/10 08:56:27;;;;;;;2.55;2.05;;;32.10;93.20;;;;;;5012383;28;20179;-73
2023/08/10 08:58:53;;;;;;;2.42;2.10;;;32.20;93.80;;;;;;5011827;28;20800;-73
2023/08/10 09:01:19;;;;;;;2.83;2.63;;;32.30;94.00;;;;;;5011919;28;20166;-73
2023/08/10 09:03:45;;;;;;;4.68;4.05;;;32.20;90.00;;;;;;5011858;28;20199;-73
2023/08/10 09:06:11;;;;;;;5.97;2.53;;;32.10;91.20;;;;;;5012086;28;20164;-73
2023/08/10 09:08:41;;;;;;;2.75;2.55;;;32.20;91.90;;;;;;5011874;28;20168;-73
2023/08/10 09:11:08;;;;;;;2.38;2.20;;;32.30;92.10;;;;;;5010735;28;20209;-73
2023/08/10 09:13:33;;;;;;;2.42;2.25;;;32.60;92.90;;;;;;5011598;28;20218;-73
2023/08/10 09:16:10;;;;;;;2.65;2.20;;;32.70;88.60;;;;;;5011990;28;20187;-73
2023/08/10 09:18:38;;;;;;;5.95;5.55;;;32.50;91.30;;;;;;5005718;28;20258;-73
2023/08/10 09:21:16;;;;;;;5.72;5.32;;;32.20;91.70;;;;;;5011541;28;20630;-73
2023/08/10 09:23:43;;;;;;;5.57;5.32;;;31.80;90.70;;;;;;5011268;28;20202;-72
2023/08/10 09:26:10;;;;;;;2.60;2.40;;;31.70;92.10;;;;;;5010071;28;20332;-73
2023/08/10 09:28:39;;;;;;;2.70;1.83;;;31.70;92.90;;;;;;5000537;28;20184;-73
2023/08/10 09:31:07;;;;;;;3.15;2.53;;;31.70;86.80;;;;;;5011330;28;20191;-73
2023/08/10 09:33:34;;;;;;;2.53;2.33;;;31.40;87.70;;;;;;5009739;28;20235;-72
2023/08/10 09:36:00;;;;;;;3.30;2.83;;;31.60;94.30;;;;;;5011657;28;20172;-72
2023/08/10 09:38:26;;;;;;;2.80;2.60;;;32.20;93.20;;;;;;5011019;28;20208;-73
2023/08/10 09:41:13;;;;;;;3.20;2.58;;;32.50;89.70;;;;;;5011451;28;20588;-72
2023/08/10 09:43:41;;;;;;;2.08;1.98;;;32.40;91.40;;;;;;5011275;28;20180;-73
2023/08/10 09:46:09;;;;;;;3.15;2.88;;;32.30;88.20;;;;;;5011706;28;20587;-72
2023/08/10 09:48:44;;;;;;;2.95;2.75;;;31.80;90.00;;;;;;5009650;28;20191;-72
2023/08/10 09:51:11;;;;;;;2.13;1.80;;;31.70;91.70;;;;;;5011486;28;20172;-72
2023/08/10 09:53:36;;;;;;;3.55;3.35;;;31.80;90.20;;;;;;5011176;28;20207;-73
2023/08/10 09:56:06;;;;;;;2.85;2.60;;;31.60;94.10;;;;;;5009833;28;20188;-72
2023/08/10 09:58:36;;;;;;;5.40;5.00;;;31.70;90.80;;;;;;5011081;28;20196;-71
2023/08/10 10:01:03;;;;;;;3.60;3.40;;;31.50;92.20;;;;;;5010608;28;20202;-72
2023/08/10 10:03:29;;;;;;;3.10;2.90;;;31.30;91.20;;;;;;5009990;28;20494;-72
2023/08/10 10:05:55;;;;;;;2.38;2.13;;;31.40;90.10;;;;;;5011198;28;20215;-72
2023/08/10 10:08:22;;;;;;;3.38;3.08;;;31.00;88.90;;;;;;5011096;28;20542;-73
2023/08/10 10:10:48;;;;;;;6.18;5.88;;;30.40;93.20;;;;;;5011401;28;20176;-72
2023/08/10 10:13:15;;;;;;;5.97;5.60;;;30.40;91.00;;;;;;5010811;28;20195;-72
2023/08/10 10:15:44;;;;;;;4.90;4.57;;;30.40;92.10;;;;;;5011268;28;20243;-73
2023/08/10 10:18:11;;;;;;;4.82;4.50;;;30.10;90.10;;;;;;5011278;28;20207;-72
2023/08/10 10:20:43;;;;;;;4.10;3.80;;;30.70;94.70;;;;;;5011109;28;20168;-72
2023/08/10 10:23:20;;;;;;;2.47;2.28;;;31.20;94.10;;;;;;5010792;28;20243;-73
2023/08/10 10:26:03;;;;;;;2.78;2.50;;;31.70;92.10;;;;;;5011311;28;20183;-73
2023/08/10 10:28:31;;;;;;;4.05;3.85;;;31.80;92.90;;;;;;5011252;28;20211;-72
2023/08/10 10:31:17;;;;;;;4.03;3.42;;;31.70;96.30;;;;;;5010060;28;20176;-73
2023/08/10 10:33:55;;;;;;;2.80;2.10;;;31.60;95.20;;;;;;5010847;28;20236;-72
2023/08/10 10:36:21;;;;;;;4.05;3.67;;;31.20;92.20;;;;;;5011286;28;20179;-72
2023/08/10 10:38:52;;;;;;;2.72;2.53;;;31.00;93.10;;;;;;5011022;28;20211;-73
2023/08/10 10:41:32;;;;;;;2.88;2.63;;;30.60;91.50;;;;;;5010830;28;20221;-73
2023/08/10 10:43:59;;;;;;;6.35;4.55;;;30.10;91.40;;;;;;4992168;28;20262;-73
2023/08/10 10:46:31;;;;;;;4.15;3.05;;;30.50;94.20;;;;;;4995483;28;20530;-73
2023/08/10 10:48:58;;;;;;;2.65;2.40;;;30.80;94.40;;;;;;5013509;28;20662;-73
2023/08/10 10:51:24;;;;;;;19.80;18.83;;;31.20;97.40;;;;;;5014312;28;20258;-72
2023/08/10 10:53:53;;;;;;;16.40;15.60;;;31.10;97.50;;;;;;5013158;28;20737;-73
2023/08/10 10:56:20;;;;;;;11.27;10.57;;;30.90;94.60;;;;;;5014662;28;20172;-73
2023/08/10 10:58:47;;;;;;;21.30;19.95;;;30.40;94.10;;;;;;5014421;28;20277;-73
2023/08/10 11:01:17;;;;;;;5.28;4.78;;;30.30;93.60;;;;;;5014392;28;20164;-72
2023/08/10 11:03:53;;;;;;;6.28;4.90;;;30.50;96.30;;;;;;5014277;28;20195;-73
2023/08/10 11:06:20;;;;;;;17.30;16.20;;;30.60;96.10;;;;;;5013919;28;20176;-73
2023/08/10 11:08:51;;;;;;;7.55;6.93;;;30.50;94.00;;;;;;5014289;28;20215;-73
2023/08/10 11:11:17;;;;;;;6.40;4.38;;;30.20;92.70;;;;;;5014033;28;20180;-73
2023/08/10 11:13:43;;;;;;;6.30;5.57;;;30.30;95.70;;;;;;5014166;28;20200;-73
2023/08/10 11:16:09;;;;;;;4.45;4.05;;;30.20;95.20;;;;;;5014384;28;20568;-73
2023/08/10 11:18:37;;;;;;;5.22;3.83;;;30.50;95.90;;;;;;5014014;28;20283;-73
2023/08/10 11:21:06;;;;;;;6.82;6.32;;;30.40;94.60;;;;;;5014386;28;20259;-73
2023/08/10 11:23:32;;;;;;;6.60;5.90;;;30.40;96.40;;;;;;5013394;28;20188;-72
2023/08/10 11:25:58;;;;;;;9.82;8.82;;;30.50;96.60;;;;;;5013224;28;20176;-72
2023/08/10 11:28:26;;;;;;;10.30;9.05;;;30.70;94.10;;;;;;5014094;28;20267;-72
2023/08/10 11:30:51;;;;;;;9.65;5.90;;;30.50;92.80;;;;;;5013868;28;20176;-73
2023/08/10 11:33:18;;;;;;;5.07;4.32;;;30.40;95.50;;;;;;5011697;28;20784;-74
2023/08/10 11:35:50;;;;;;;6.80;6.20;;;30.00;93.60;;;;;;5013620;28;20176;-73
2023/08/10 11:38:16;;;;;;;5.10;4.60;;;29.70;96.20;;;;;;5013810;28;20200;-73
2023/08/10 11:40:42;;;;;;;4.95;3.88;;;29.90;99.20;;;;;;5013656;28;20597;-73
2023/08/10 11:43:12;;;;;;;5.57;4.65;;;30.20;95.80;;;;;;5013162;28;20204;-74
2023/08/10 11:45:38;;;;;;;4.47;3.97;;;29.90;99.20;;;;;;5013200;28;20180;-74
2023/08/10 11:48:13;;;;;;;5.93;4.25;;;29.90;95.10;;;;;;4994193;28;20173;-73
2023/08/10 11:50:39;;;;;;;5.03;4.25;;;30.00;95.50;;;;;;4999529;28;20178;-73
2023/08/10 11:53:11;;;;;;;5.43;4.60;;;30.00;95.60;;;;;;5012618;28;20556;-73
2023/08/10 11:55:51;;;;;;;5.32;4.22;;;29.90;97.30;;;;;;5013055;28;20211;-73
2023/08/10 11:58:18;;;;;;;6.68;6.15;;;30.10;98.40;;;;;;5013580;28;20227;-71
2023/08/10 12:00:49;;;;;;;8.65;8.05;;;30.00;97.60;;;;;;5013142;28;20176;-73
2023/08/10 12:03:23;;;;;;;9.07;8.48;;;29.80;97.10;;;;;;5012871;28;20198;-73
2023/08/10 12:05:52;;;;;;;7.53;6.93;;;29.70;95.90;;;;;;5010479;28;20662;-73
2023/08/10 12:08:26;;;;;;;6.30;5.20;;;29.50;99.40;;;;;;5013187;28;20275;-72
2023/08/10 12:11:03;;;;;;;8.00;7.18;;;29.70;99.90;;;;;;5013044;28;20207;-73
2023/08/10 12:13:29;;;;;;;9.93;9.23;;;29.70;96.90;;;;;;5012498;28;20200;-72
2023/08/10 12:15:57;;;;;;;10.48;6.28;;;29.60;97.40;;;;;;5012982;28;20662;-73
2023/08/10 12:18:24;;;;;;;10.18;9.48;;;29.30;98.90;;;;;;5013058;28;20681;-73
2023/08/10 12:20:53;;;;;;;6.07;5.55;;;29.30;98.10;;;;;;5012980;28;20267;-72
2023/08/10 12:23:19;;;;;;;7.13;6.50;;;28.90;98.70;;;;;;5012475;28;20208;-72
2023/08/10 12:25:47;;;;;;;7.13;6.53;;;28.70;99.00;;;;;;5012851;28;20176;-72
2023/08/10 12:28:14;;;;;;;8.18;7.47;;;28.60;97.60;;;;;;5012332;28;20181;-73
2023/08/10 12:30:40;;;;;;;7.35;6.75;;;28.40;99.20;;;;;;5012502;28;20255;-72
2023/08/10 12:33:06;;;;;;;6.28;5.50;;;28.40;99.90;;;;;;5011804;28;20298;-73
2023/08/10 12:35:32;;;;;;;7.20;5.25;;;28.10;99.90;;;;;;5012319;28;20263;-72
2023/08/10 12:37:58;;;;;;;5.60;5.10;;;28.40;99.90;;;;;;5010781;28;20765;-72
2023/08/10 12:40:24;;;;;;;6.05;5.55;;;28.70;99.90;;;;;;5011920;28;20180;-73
2023/08/10 12:42:50;;;;;;;8.52;6.53;;;28.90;99.90;;;;;;5011805;28;20732;-71
2023/08/10 12:45:17;;;;;;;7.00;5.82;;;29.10;98.80;;;;;;5011045;28;20275;-73